.
WxDataArchive / Data Records for 2007-10-10
2007-10-09 October 2007 2007-10-11

Data Records for Wednesday, 10 October 2007

Time	Temp	Chill	HIndex	Humid	Dewpt	 Wind 	HiWind	WindDir	Rain 	Barom 
-----	----	-----	------	-----	-----	------	------	-------	-----	----- 
00:00	55.3	55.3	55.3	70	45.7	1	3	315	0.00	29.788 
00:05	55.1	55.1	55.1	70	45.5	1	3	292	0.00	29.786 
00:10	55.0	55.0	55.0	70	45.4	0	2	315	0.00	29.787 
00:15	54.8	54.8	54.8	70	45.2	0	1	315	0.00	29.786 
00:20	54.5	54.5	54.5	70	44.9	0	2	292	0.00	29.786 
00:25	54.5	54.5	54.5	69	44.5	1	3	292	0.00	29.786 
00:30	54.4	54.4	54.4	69	44.4	0	2	292	0.00	29.785 
00:35	54.2	54.2	54.2	69	44.3	0	2	292	0.00	29.785 
00:40	54.2	54.2	54.2	69	44.3	0	1	315	0.00	29.785 
00:45	54.1	54.1	54.1	69	44.2	0	2	315	0.00	29.785 
00:50	53.9	53.9	53.9	69	44.0	0	1	315	0.00	29.785 
00:55	53.6	53.6	53.6	70	44.1	0	1	315	0.00	29.784 
01:00	53.5	53.5	53.5	71	44.3	0	1	315	0.00	29.784 
01:05	53.3	53.3	53.3	72	44.5	0	2	315	0.00	29.782 
01:10	53.5	53.5	53.5	72	44.7	0	1	315	0.00	29.778 
01:15	53.5	53.5	53.5	72	44.7	0	1	315	0.00	29.773 
01:20	53.5	53.5	53.5	72	44.7	0	1	315	0.00	29.774 
01:25	53.5	53.5	53.5	72	44.7	0	2	315	0.00	29.774 
01:30	53.5	53.5	53.5	72	44.7	0	1	315	0.00	29.772 
01:35	53.3	53.3	53.3	72	44.5	0	2	315	0.00	29.774 
01:40	53.2	53.2	53.2	72	44.4	1	3	315	0.00	29.776 
01:45	53.2	53.2	53.2	71	44.0	1	3	315	0.00	29.774 
01:50	53.2	53.2	53.2	69	43.3	1	4	315	0.00	29.775 
01:55	53.1	53.1	53.1	69	43.2	0	3	315	0.00	29.776 
02:00	53.1	53.1	53.1	67	42.4	1	5	248	0.00	29.776 
02:05	53.1	53.1	53.1	65	41.6	1	3	270	0.00	29.771 
02:10	53.1	53.1	53.1	65	41.6	1	3	315	0.00	29.771 
02:15	53.2	53.2	53.2	63	40.9	2	5	315	0.00	29.770 
02:20	53.2	53.2	53.2	63	40.9	1	4	270	0.00	29.771 
02:25	53.2	53.2	53.2	62	40.5	2	6	315	0.00	29.771 
02:30	53.2	53.2	53.2	62	40.5	1	3	315	0.00	29.770 
02:35	53.1	53.1	53.1	62	40.4	1	3	338	0.00	29.768 
02:40	53.1	53.1	53.1	62	40.4	1	3	315	0.00	29.766 
02:45	52.9	52.9	52.9	62	40.2	1	4	270	0.00	29.767 
02:50	52.9	52.9	52.9	62	40.2	1	5	292	0.00	29.768 
02:55	52.8	52.8	52.8	62	40.1	0	2	292	0.00	29.769 
03:00	52.8	52.8	52.8	61	39.7	1	4	292	0.00	29.769 
03:05	52.8	52.8	52.8	60	39.3	2	6	292	0.00	29.771 
03:10	52.6	52.6	52.6	60	39.1	2	5	270	0.00	29.771 
03:15	52.6	52.6	52.6	60	39.1	1	5	315	0.00	29.770 
03:20	52.5	52.5	52.5	58	38.2	2	5	292	0.00	29.770 
03:25	52.5	52.5	52.5	58	38.2	1	2	315	0.00	29.769 
03:30	52.3	52.3	52.3	58	38.0	1	4	315	0.00	29.770 
03:35	52.3	52.3	52.3	58	38.0	2	6	315	0.00	29.770 
03:40	52.2	52.2	52.2	58	37.9	1	4	292	0.00	29.771 
03:45	52.2	52.2	52.2	58	37.9	1	4	292	0.00	29.771 
03:50	52.2	52.2	52.2	58	37.9	1	3	315	0.00	29.771 
03:55	52.2	52.2	52.2	58	37.9	1	4	315	0.00	29.771 
04:00	52.0	52.0	52.0	59	38.1	1	5	248	0.00	29.771 
04:05	52.0	52.0	52.0	58	37.7	1	4	270	0.00	29.772 
04:10	52.0	52.0	52.0	58	37.7	1	4	292	0.00	29.771 
04:15	51.9	51.9	51.9	59	38.0	1	2	315	0.00	29.768 
04:20	51.9	51.9	51.9	58	37.6	1	3	315	0.00	29.767 
04:25	51.9	51.9	51.9	59	38.0	0	3	315	0.00	29.764 
04:30	51.9	51.9	51.9	58	37.6	0	3	338	0.00	29.762 
04:35	51.9	51.9	51.9	58	37.6	1	2	292	0.00	29.764 
04:40	51.9	51.9	51.9	58	37.6	1	3	315	0.00	29.768 
04:45	51.9	51.9	51.9	59	38.0	1	2	292	0.00	29.768 
04:50	51.9	51.9	51.9	59	38.0	1	3	270	0.00	29.769 
04:55	51.9	51.9	51.9	59	38.0	0	2	270	0.00	29.767 
05:00	51.7	51.7	51.7	58	37.4	0	2	292	0.00	29.768 
05:05	51.7	51.7	51.7	60	38.3	0	2	292	0.00	29.772 
05:10	51.7	51.7	51.7	59	37.8	0	1	292	0.00	29.772 
05:15	51.7	51.7	51.7	60	38.3	0	3	270	0.00	29.773 
05:20	51.7	51.7	51.7	60	38.3	0	2	270	0.00	29.773 
05:25	51.6	51.6	51.6	60	38.2	0	2	292	0.00	29.773 
05:30	51.4	51.4	51.4	61	38.4	0	4	292	0.00	29.773 
05:35	51.4	51.4	51.4	61	38.4	1	4	315	0.00	29.775 
05:40	50.7	50.7	50.7	68	40.5	1	3	338	0.00	29.780 
05:45	49.6	49.6	49.6	71	40.6	1	4	315	0.00	29.782 
05:50	49.1	49.1	49.1	74	41.2	1	2	292	0.00	29.786 
05:55	48.8	48.8	48.8	75	41.2	1	3	292	0.00	29.790 
06:00	48.3	48.3	48.3	76	41.1	1	2	315	0.00	29.792 
06:05	47.9	47.9	47.9	77	41.0	1	6	270	0.00	29.797 
06:10	47.4	47.4	47.4	79	41.2	0	2	315	0.00	29.797 
06:15	47.1	47.1	47.1	80	41.3	1	3	315	0.00	29.796 
06:20	47.0	47.0	47.0	81	41.5	1	3	292	0.00	29.798 
06:25	46.7	46.7	46.7	81	41.2	1	4	270	0.00	29.802 
06:30	46.7	46.7	46.7	82	41.5	1	4	270	0.00	29.801 
06:35	46.5	46.5	46.5	84	41.9	0	3	315	0.00	29.798 
06:40	46.4	46.4	46.4	84	41.8	1	3	315	0.00	29.800 
06:45	46.2	46.2	46.2	85	41.9	0	2	315	0.00	29.798 
06:50	46.2	46.2	46.2	86	42.2	0	2	315	0.01	29.796 
06:55	46.1	46.1	46.1	86	42.1	0	1	315	0.00	29.796 
07:00	46.1	46.1	46.1	87	42.4	0	1	315	0.00	29.796 
07:05	46.2	46.2	46.2	88	42.8	0	1	315	0.00	29.797 
07:10	46.2	46.2	46.2	88	42.8	0	1	315	0.00	29.797 
07:15	46.2	46.2	46.2	88	42.8	0	1	315	0.00	29.797 
07:20	46.4	46.4	46.4	87	42.7	0	1	315	0.00	29.798 
07:25	46.4	46.4	46.4	88	43.0	0	1	315	0.00	29.798 
07:30	46.4	46.4	46.4	87	42.7	0	1	315	0.00	29.798 
07:35	46.4	46.4	46.4	87	42.7	0	1	315	0.00	29.797 
07:40	46.4	46.4	46.4	86	42.4	0	1	315	0.00	29.796 
07:45	46.4	46.4	46.4	87	42.7	0	1	315	0.00	29.796 
07:50	46.5	46.5	46.5	87	42.8	0	1	315	0.00	29.796 
07:55	46.8	46.8	46.8	86	42.8	0	2	315	0.00	29.797 
08:00	47.3	47.3	47.3	86	43.3	1	3	315	0.00	29.798 
08:05	47.9	47.9	47.9	84	43.3	0	2	270	0.00	29.797 
08:10	48.0	48.0	48.0	83	43.1	1	3	270	0.00	29.797 
08:15	48.2	48.2	48.2	82	43.0	0	1	270	0.00	29.797 
08:20	48.3	48.3	48.3	81	42.7	1	3	270	0.00	29.797 
08:25	48.5	48.5	48.5	79	42.3	1	5	270	0.00	29.799 
08:30	48.6	48.6	48.6	80	42.7	1	3	270	0.00	29.800 
08:35	48.8	48.8	48.8	76	41.6	1	4	270	0.00	29.800 
08:40	48.8	48.8	48.8	76	41.6	1	3	270	0.00	29.799 
08:45	48.9	48.9	48.9	75	41.3	1	2	315	0.00	29.798 
08:50	49.1	49.1	49.1	77	42.2	0	2	315	0.00	29.800 
08:55	49.5	49.5	49.5	75	41.9	1	3	315	0.00	29.802 
09:00	49.8	49.8	49.8	73	41.5	1	3	315	0.00	29.799 
09:05	49.9	49.9	49.9	73	41.6	1	4	270	0.00	29.801 
09:10	49.8	49.8	49.8	72	41.1	1	3	270	0.00	29.802 
09:15	49.6	49.6	49.6	70	40.2	2	4	270	0.00	29.803 
09:20	49.5	49.5	49.5	70	40.1	2	3	248	0.00	29.801 
09:25	49.4	49.4	49.4	70	40.0	2	4	270	0.00	29.803 
09:30	49.4	49.4	49.4	72	40.8	1	4	270	0.00	29.801 
09:35	49.4	49.4	49.4	71	40.4	1	4	270	0.00	29.800 
09:40	49.4	49.4	49.4	71	40.4	1	3	248	0.00	29.802 
09:45	49.1	49.1	49.1	71	40.1	0	3	315	0.00	29.801 
09:50	49.4	49.4	49.4	72	40.8	0	3	315	0.00	29.802 
09:55	49.9	49.9	49.9	70	40.5	1	4	315	0.00	29.800 
10:00	50.1	50.1	50.1	69	40.3	2	4	315	0.00	29.801 
10:05	50.1	50.1	50.1	69	40.3	2	4	270	0.00	29.808 
10:10	49.6	49.6	49.6	71	40.6	2	5	270	0.00	29.808 
10:15	49.2	49.2	49.2	73	40.9	2	5	270	0.00	29.814 
10:20	48.9	48.9	48.9	74	41.0	1	4	315	0.00	29.814 
10:25	49.4	49.4	49.4	75	41.8	1	3	270	0.00	29.816 
10:30	49.5	49.5	49.5	73	41.2	2	5	270	0.00	29.816 
10:35	49.4	49.4	49.4	74	41.5	1	4	270	0.00	29.818 
10:40	49.6	49.6	49.6	73	41.3	1	3	248	0.00	29.816 
10:45	49.8	49.8	49.8	70	40.4	2	5	270	0.00	29.816 
10:50	49.9	49.9	49.9	71	40.9	2	4	248	0.00	29.817 
10:55	50.5	50.5	50.5	71	41.5	1	3	248	0.00	29.816 
11:00	51.6	51.6	51.6	70	42.1	1	4	248	0.00	29.816 
11:05	52.3	52.3	52.3	66	41.3	2	5	270	0.00	29.817 
11:10	51.6	51.6	51.6	67	41.0	2	5	248	0.00	29.816 
11:15	51.0	51.0	51.0	70	41.6	1	4	270	0.00	29.817 
11:20	50.5	50.5	50.5	70	41.1	2	4	248	0.00	29.815 
11:25	50.2	50.2	50.2	70	40.8	1	2	292	0.00	29.817 
11:30	50.4	50.4	50.4	70	41.0	1	3	248	0.00	29.818 
11:35	50.1	50.1	50.1	72	41.4	1	4	270	0.00	29.818 
11:40	49.4	49.4	49.4	73	41.1	2	4	270	0.00	29.820 
11:45	48.8	48.8	48.8	76	41.6	1	4	292	0.00	29.819 
11:50	48.3	48.3	48.3	77	41.4	2	4	270	0.00	29.818 
11:55	48.3	48.3	48.3	77	41.4	1	4	270	0.00	29.819 
12:00	48.6	48.6	48.6	77	41.7	1	2	248	0.00	29.816 
12:05	48.9	48.9	48.9	76	41.7	1	4	315	0.00	29.818 
12:10	49.4	49.4	49.4	75	41.8	1	2	315	0.00	29.813 
12:15	49.6	49.6	49.6	75	42.0	1	4	270	0.00	29.808 
12:20	49.8	49.8	49.8	74	41.9	1	4	248	0.00	29.812 
12:25	49.9	49.9	49.9	74	41.9	2	6	292	0.00	29.812 
12:30	49.6	49.6	49.6	75	42.0	2	4	270	0.00	29.811 
12:35	49.2	49.2	49.2	77	42.3	3	6	270	0.00	29.811 
12:40	49.2	49.2	49.2	77	42.3	3	5	270	0.00	29.810 
12:45	49.4	49.4	49.4	75	41.8	2	6	270	0.00	29.816 
12:50	49.2	49.2	49.2	74	41.3	3	5	270	0.00	29.813 
12:55	49.5	49.5	49.5	76	42.3	1	4	248	0.00	29.808 
13:00	49.6	49.6	49.6	74	41.7	2	4	270	0.00	29.809 
13:05	49.6	49.6	49.6	74	41.7	3	6	248	0.00	29.809 
13:10	49.8	49.8	49.8	73	41.5	2	4	270	0.00	29.806 
13:15	50.1	50.1	50.1	73	41.8	1	4	270	0.00	29.806 
13:20	50.1	50.1	50.1	71	41.1	2	5	292	0.00	29.808 
13:25	49.6	49.6	49.6	72	40.9	3	5	270	0.00	29.813 
13:30	49.4	49.4	49.4	74	41.5	2	5	270	0.00	29.812 
13:35	49.2	49.2	49.2	75	41.6	1	4	270	0.00	29.808 
13:40	49.4	49.4	49.4	76	42.2	0	1	270	0.00	29.806 
13:45	50.2	50.2	50.2	74	42.2	1	4	315	0.00	29.806 
13:50	51.0	51.0	51.0	68	40.8	3	10	270	0.00	29.803 
13:55	51.0	51.0	51.0	65	39.7	4	11	270	0.00	29.803 
14:00	50.8	50.8	50.8	65	39.5	3	5	270	0.00	29.803 
14:05	50.5	50.5	50.5	66	39.6	2	6	315	0.00	29.801 
14:10	50.5	50.5	50.5	66	39.6	3	7	270	0.00	29.801 
14:15	50.2	50.2	50.2	67	39.7	3	10	315	0.00	29.804 
14:20	49.8	49.8	49.8	68	39.7	2	6	270	0.00	29.804 
14:25	49.6	49.6	49.6	69	39.9	2	5	248	0.00	29.804 
14:30	49.5	49.5	49.5	69	39.8	3	7	270	0.00	29.807 
14:35	49.1	49.1	49.1	70	39.7	3	7	270	0.00	29.809 
14:40	48.5	48.5	48.5	72	39.9	3	10	270	0.00	29.811 
14:45	47.7	47.7	47.7	75	40.2	3	6	270	0.00	29.810 
14:50	47.6	47.6	47.6	76	40.4	3	6	270	0.00	29.811 
14:55	47.7	47.7	47.7	74	39.8	3	5	270	0.00	29.811 
15:00	48.0	48.0	48.0	74	40.1	1	4	270	0.00	29.811 
15:05	48.6	48.6	48.6	71	39.6	2	4	248	0.00	29.811 
15:10	49.1	49.1	49.1	70	39.7	1	3	248	0.00	29.811 
15:15	49.6	49.6	49.6	70	40.2	1	6	248	0.00	29.814 
15:20	49.6	49.6	49.6	66	38.7	3	5	270	0.00	29.814 
15:25	49.6	49.6	49.6	67	39.1	2	5	270	0.00	29.814 
15:30	49.8	49.8	49.8	65	38.5	2	5	270	0.00	29.815 
15:35	49.8	49.8	49.8	65	38.5	2	6	270	0.00	29.815 
15:40	49.9	49.9	49.9	64	38.2	3	7	248	0.00	29.814 
15:45	49.8	49.8	49.8	65	38.5	2	6	248	0.00	29.812 
15:50	49.9	49.9	49.9	64	38.2	3	5	270	0.00	29.811 
15:55	50.1	50.1	50.1	64	38.4	2	5	270	0.00	29.812 
16:00	50.2	50.2	50.2	63	38.1	3	5	270	0.00	29.813 
16:05	50.4	50.4	50.4	64	38.7	1	3	248	0.00	29.817 
16:10	50.4	50.4	50.4	64	38.7	2	4	270	0.00	29.815 
16:15	50.4	50.4	50.4	64	38.7	2	4	270	0.00	29.817 
16:20	50.4	50.4	50.4	64	38.7	2	4	248	0.00	29.818 
16:25	50.2	50.2	50.2	64	38.5	2	4	270	0.00	29.819 
16:30	50.2	50.2	50.2	64	38.5	2	4	270	0.00	29.820 
16:35	50.2	50.2	50.2	64	38.5	1	4	270	0.00	29.820 
16:40	50.2	50.2	50.2	64	38.5	2	4	270	0.00	29.819 
16:45	50.2	50.2	50.2	63	38.1	3	5	270	0.00	29.822 
16:50	50.1	50.1	50.1	64	38.4	2	5	270	0.00	29.822 
16:55	50.1	50.1	50.1	64	38.4	1	4	315	0.00	29.822 
17:00	49.8	49.8	49.8	64	38.1	2	5	315	0.00	29.822 
17:05	49.8	49.8	49.8	64	38.1	2	5	248	0.00	29.825 
17:10	49.6	49.6	49.6	64	37.9	1	4	270	0.00	29.826 
17:15	49.6	49.6	49.6	63	37.5	2	6	248	0.00	29.827 
17:20	49.5	49.5	49.5	64	37.8	2	5	292	0.00	29.826 
17:25	49.5	49.5	49.5	64	37.8	1	6	248	0.00	29.828 
17:30	49.5	49.5	49.5	64	37.8	2	5	270	0.00	29.828 
17:35	49.5	49.5	49.5	64	37.8	2	5	270	0.00	29.828 
17:40	49.4	49.4	49.4	65	38.1	2	4	270	0.00	29.829 
17:45	49.4	49.4	49.4	65	38.1	1	2	270	0.00	29.832 
17:50	49.2	49.2	49.2	65	37.9	1	4	270	0.00	29.832 
17:55	49.2	49.2	49.2	66	38.3	1	2	292	0.00	29.832 
18:00	49.1	49.1	49.1	65	37.8	1	4	292	0.00	29.834 
18:05	49.1	49.1	49.1	65	37.8	2	5	270	0.00	29.837 
18:10	49.1	49.1	49.1	65	37.8	2	4	270	0.00	29.835 
18:15	48.9	48.9	48.9	66	38.0	2	4	248	0.00	29.840 
18:20	48.8	48.8	48.8	67	38.3	2	5	270	0.00	29.838 
18:25	48.6	48.6	48.6	68	38.5	1	3	270	0.00	29.840 
18:30	48.5	48.5	48.5	68	38.4	2	4	248	0.00	29.839 
18:35	48.2	48.2	48.2	70	38.9	2	5	270	0.00	29.841 
18:40	47.7	47.7	47.7	73	39.5	3	6	270	0.00	29.842 
18:45	47.4	47.4	47.4	75	39.9	2	6	248	0.00	29.843 
18:50	47.1	47.1	47.1	76	39.9	1	3	248	0.00	29.844 
18:55	47.1	47.1	47.1	76	39.9	1	4	248	0.00	29.844 
19:00	47.0	47.0	47.0	76	39.8	2	6	270	0.00	29.843 
19:05	47.0	47.0	47.0	77	40.2	1	4	270	0.00	29.838 
19:10	46.8	46.8	46.8	77	40.0	1	3	270	0.00	29.835 
19:15	46.8	46.8	46.8	76	39.6	1	4	270	0.00	29.832 
19:20	46.8	46.8	46.8	76	39.6	1	3	270	0.00	29.832 
19:25	47.0	47.0	47.0	75	39.5	2	6	248	0.00	29.830 
19:30	47.1	47.1	47.1	74	39.2	1	4	248	0.00	29.830 
19:35	47.3	47.3	47.3	74	39.4	1	4	225	0.00	29.829 
19:40	47.4	47.4	47.4	74	39.5	1	5	248	0.00	29.830 
19:45	47.4	47.4	47.4	74	39.5	1	4	248	0.00	29.829 
19:50	47.4	47.4	47.4	74	39.5	2	6	248	0.00	29.829 
19:55	47.4	47.4	47.4	74	39.5	2	4	270	0.00	29.831 
20:00	47.3	47.3	47.3	75	39.8	2	5	270	0.00	29.829 
20:05	47.1	47.1	47.1	76	39.9	2	6	248	0.00	29.826 
20:10	47.1	47.1	47.1	76	39.9	1	4	248	0.00	29.826 
20:15	47.1	47.1	47.1	76	39.9	2	5	248	0.00	29.826 
20:20	47.0	47.0	47.0	77	40.2	3	7	270	0.00	29.825 
20:25	47.0	47.0	47.0	77	40.2	2	7	248	0.00	29.825 
20:30	47.0	47.0	47.0	78	40.5	3	6	248	0.00	29.824 
20:35	46.8	46.8	46.8	79	40.6	2	6	248	0.00	29.823 
20:40	46.8	46.8	46.8	80	41.0	1	5	248	0.00	29.821 
20:45	46.7	46.7	46.7	80	40.9	2	5	248	0.00	29.820 
20:50	46.7	46.7	46.7	80	40.9	2	6	248	0.00	29.820 
20:55	46.7	46.7	46.7	81	41.2	1	5	248	0.00	29.819 
21:00	46.8	46.8	46.8	81	41.3	1	4	248	0.00	29.816 
21:05	46.8	46.8	46.8	81	41.3	2	5	248	0.00	29.814 
21:10	46.8	46.8	46.8	82	41.6	1	4	248	0.00	29.812 
21:15	46.8	46.8	46.8	82	41.6	2	5	270	0.00	29.811 
21:20	46.8	46.8	46.8	82	41.6	2	4	270	0.00	29.811 
21:25	46.8	46.8	46.8	82	41.6	2	6	248	0.00	29.811 
21:30	46.8	46.8	46.8	83	41.9	2	5	248	0.00	29.811 
21:35	46.8	46.8	46.8	83	41.9	2	6	270	0.00	29.810 
21:40	46.8	46.8	46.8	84	42.2	2	4	248	0.00	29.809 
21:45	46.8	46.8	46.8	84	42.2	1	4	270	0.00	29.806 
21:50	46.8	46.8	46.8	84	42.2	2	5	270	0.00	29.804 
21:55	46.8	46.8	46.8	84	42.2	2	5	248	0.00	29.803 
22:00	46.8	46.8	46.8	84	42.2	2	7	248	0.00	29.799 
22:05	46.8	46.8	46.8	84	42.2	2	6	248	0.00	29.794 
22:10	47.0	47.0	47.0	85	42.7	1	3	270	0.00	29.794 
22:15	47.0	47.0	47.0	85	42.7	1	4	248	0.00	29.793 
22:20	47.0	47.0	47.0	86	43.0	1	5	248	0.00	29.791 
22:25	47.0	47.0	47.0	86	43.0	1	4	248	0.00	29.792 
22:30	47.0	47.0	47.0	86	43.0	1	4	270	0.00	29.792 
22:35	47.0	47.0	47.0	87	43.3	1	4	270	0.00	29.791 
22:40	47.0	47.0	47.0	87	43.3	1	3	248	0.00	29.792 
22:45	47.0	47.0	47.0	88	43.6	1	3	248	0.00	29.792 
22:50	47.0	47.0	47.0	88	43.6	1	4	270	0.00	29.791 
22:55	47.0	47.0	47.0	89	43.9	1	4	270	0.00	29.787 
23:00	46.8	46.8	46.8	90	44.0	0	3	248	0.00	29.781 
23:05	46.7	46.7	46.7	90	43.9	1	3	248	0.01	29.781 
23:10	46.7	46.7	46.7	91	44.2	1	2	248	0.00	29.780 
23:15	46.5	46.5	46.5	91	44.0	1	3	248	0.00	29.779 
23:20	46.5	46.5	46.5	92	44.3	1	2	248	0.01	29.779 
23:25	46.5	46.5	46.5	92	44.3	0	1	248	0.00	29.778 
23:30	46.5	46.5	46.5	93	44.6	0	1	248	0.00	29.777 
23:35	46.5	46.5	46.5	93	44.6	0	1	248	0.00	29.777 
23:40	46.5	46.5	46.5	93	44.6	0	1	248	0.01	29.777 
23:45	46.5	46.5	46.5	94	44.9	0	1	248	0.00	29.776 
23:50	46.5	46.5	46.5	94	44.9	0	1	248	0.00	29.776 
23:55	46.7	46.7	46.7	94	45.1	0	1	248	0.00	29.774 

CoCoRaHS
IN-AL-39
A2 Web Hosting
Creative Commons License
GoDaddy
Look for:

loaded 2017-10-20 19:42:10 • last modified 2010-11-18 10:43:29
Privacy PolicyDisclaimer
• wx.awcolley.com is powered by PmWiki v.2002016 •
• all content (unless otherwise noted) © 2017 A W Colley